Time;durP1;ratioP1;P1;durP2;ratioP2;P2;SDS_P1;SDS_P2;PMS_P1;PMS_P2;Temp;Humidity;BMP_temperature;BMP_pressure;BME280_temperature;BME280_humidity;BME280_pressure;Samples;Min_cycle;Max_cycle;Signal;HPM_P1;HPM_P2
2022/11/25 00:01:29;;;;;;;2.13;1.70;;;;;;;3.39;86.80;95302.46;1780182;81;21035;-66
2022/11/25 00:03:57;;;;;;;6.00;2.80;;;;;;;3.36;86.59;95317.66;1779847;81;20963;-66
2022/11/25 00:06:28;;;;;;;6.17;4.63;;;;;;;3.34;86.67;95319.83;1779858;81;21011;-66
2022/11/25 00:09:00;;;;;;;7.00;5.30;;;;;;;3.28;86.49;95319.37;1780095;81;20959;-66
2022/11/25 00:11:28;;;;;;;9.90;6.67;;;;;;;3.28;86.50;95327.19;1780039;81;21015;-66
2022/11/25 00:13:56;;;;;;;10.87;7.30;;;;;;;3.28;86.51;95327.63;1779970;81;21018;-66
2022/11/25 00:16:25;;;;;;;10.80;7.80;;;;;;;3.20;86.06;95332.37;1779876;81;21015;-66
2022/11/25 00:18:54;;;;;;;13.63;8.63;;;;;;;3.14;86.19;95339.27;1779822;81;20991;-66
2022/11/25 00:21:26;;;;;;;13.00;7.87;;;;;;;3.09;86.27;95339.67;1779789;81;21054;-66
2022/11/25 00:23:56;;;;;;;9.90;7.27;;;;;;;3.05;86.05;95337.49;1778345;81;21007;-66
2022/11/25 00:26:25;;;;;;;8.93;6.90;;;;;;;2.97;84.89;95337.45;1779480;80;21489;-66
2022/11/25 00:28:53;;;;;;;8.20;5.80;;;;;;;2.89;84.39;95345.62;1784451;80;21011;-66
2022/11/25 00:31:24;;;;;;;9.07;6.23;;;;;;;2.79;83.47;95342.51;1795429;80;21037;-66
2022/11/25 00:33:52;;;;;;;8.27;6.27;;;;;;;2.72;83.96;95339.01;1795527;80;21029;-66
2022/11/25 00:36:24;;;;;;;9.50;6.67;;;;;;;2.59;83.81;95338.45;1795291;80;21009;-66
2022/11/25 00:38:58;;;;;;;11.20;6.80;;;;;;;2.57;84.47;95340.16;1795050;80;20978;-66
2022/11/25 00:47:00;;;;;;;8.70;5.77;;;;;;;2.47;85.27;95352.27;1795054;80;21078;-66
2022/11/25 00:49:27;;;;;;;8.90;5.37;;;;;;;2.43;84.95;95358.29;1795598;80;20984;-66
2022/11/25 00:51:54;;;;;;;9.47;5.60;;;;;;;2.35;84.98;95359.52;1795374;80;21011;-66
2022/11/25 00:54:21;;;;;;;11.70;6.00;;;;;;;2.36;85.04;95364.30;1795270;80;20990;-66
2022/11/25 00:56:49;;;;;;;8.30;5.20;;;;;;;2.35;85.07;95371.67;1795362;80;21038;-66
2022/11/25 00:59:16;;;;;;;9.17;5.73;;;;;;;2.31;85.16;95382.47;1795453;80;21527;-66
2022/11/25 01:01:43;;;;;;;8.80;6.13;;;;;;;2.30;85.29;95377.27;1795007;80;21010;-66
2022/11/25 01:04:10;;;;;;;9.03;6.60;;;;;;;2.30;85.73;95387.68;1795684;80;21007;-66
2022/11/25 01:06:37;;;;;;;10.03;6.90;;;;;;;2.38;85.84;95389.48;1795211;80;21001;-66
2022/11/25 01:09:08;;;;;;;8.70;5.80;;;;;;;2.42;85.83;95390.81;1795529;80;20990;-66
2022/11/25 01:11:35;;;;;;;9.03;6.40;;;;;;;2.35;85.82;95390.77;1795335;80;21006;-66
2022/11/25 01:14:01;;;;;;;9.10;6.10;;;;;;;2.35;86.03;95391.20;1795342;80;21030;-66
2022/11/25 01:16:30;;;;;;;8.10;5.97;;;;;;;2.34;86.08;95392.04;1795081;80;21086;-66
2022/11/25 01:19:00;;;;;;;9.30;6.40;;;;;;;2.35;86.15;95397.28;1795451;80;20990;-66
2022/11/25 01:21:31;;;;;;;8.17;4.93;;;;;;;2.35;85.98;95393.38;1794740;80;21026;-66
2022/11/25 01:24:00;;;;;;;7.47;4.70;;;;;;;2.38;85.93;95397.73;1795430;80;21025;-66
2022/11/25 01:26:28;;;;;;;7.33;5.50;;;;;;;2.32;85.52;95394.65;1795369;80;20975;-66
2022/11/25 01:29:01;;;;;;;7.23;4.67;;;;;;;2.32;85.65;95405.50;1795369;80;21603;-66
2022/11/25 01:31:31;;;;;;;7.67;5.03;;;;;;;2.33;85.53;95404.63;1795637;80;21014;-66
2022/11/25 01:34:09;;;;;;;6.37;4.50;;;;;;;2.34;85.56;95408.97;1795521;80;20991;-66
2022/11/25 01:36:36;;;;;;;7.67;5.00;;;;;;;2.36;85.71;95405.95;1794593;80;21093;-66
2022/11/25 01:39:04;;;;;;;7.80;5.40;;;;;;;2.34;85.92;95402.05;1795563;80;21543;-66
2022/11/25 01:41:33;;;;;;;4.30;3.20;;;;;;;2.34;85.92;95402.05;1795573;80;21074;-66
2022/11/25 01:44:11;;;;;;;8.10;4.00;;;;;;;2.32;85.57;95405.06;1795615;80;20982;-66
2022/11/25 01:46:48;;;;;;;5.83;4.27;;;;;;;2.34;85.50;95402.05;1795187;80;21535;-66
2022/11/25 01:49:29;;;;;;;5.90;4.40;;;;;;;2.44;85.92;95410.80;1795682;80;20987;-66
2022/11/25 01:52:04;;;;;;;5.90;4.67;;;;;;;2.47;85.32;95409.55;1794230;80;21552;-66
2022/11/25 01:54:35;;;;;;;9.00;5.20;;;;;;;2.47;85.71;95406.95;1795633;80;21085;-66
2022/11/25 01:57:07;;;;;;;10.87;6.67;;;;;;;2.51;85.90;95411.74;1795336;80;21018;-66
2022/11/25 01:59:39;;;;;;;8.23;5.80;;;;;;;2.49;86.04;95411.72;1795062;80;21006;-66
2022/11/25 02:02:08;;;;;;;8.07;4.43;;;;;;;2.60;86.51;95419.66;1795692;80;21062;-66
2022/11/25 02:04:38;;;;;;;10.27;6.40;;;;;;;2.64;85.82;95415.33;1795432;80;21023;-66
2022/11/25 02:07:13;;;;;;;7.20;4.53;;;;;;;2.57;85.51;95415.29;1795431;80;21010;-66
2022/11/25 02:09:45;;;;;;;5.30;4.07;;;;;;;2.55;85.34;95423.52;1794467;80;20995;-66
2022/11/25 02:12:16;;;;;;;4.47;3.40;;;;;;;2.57;85.05;95416.99;1795649;80;20991;-66
2022/11/25 02:14:44;;;;;;;5.00;3.70;;;;;;;2.62;85.57;95417.94;1795646;80;20994;-66
2022/11/25 02:17:11;;;;;;;4.90;3.20;;;;;;;2.63;85.31;95423.58;1795333;80;20990;-66
2022/11/25 02:20:04;;;;;;;3.83;2.67;;;;;;;2.68;84.53;95430.14;1795646;80;20955;-66
2022/11/25 02:23:13;;;;;;;5.20;3.70;;;;;;;2.65;83.94;95427.52;1795300;80;21062;-66
2022/11/25 02:25:44;;;;;;;5.03;3.70;;;;;;;2.68;84.74;95431.45;1794762;80;21022;-66
2022/11/25 02:28:20;;;;;;;5.50;3.50;;;;;;;2.70;84.16;95438.41;1795721;80;21543;-66
2022/11/25 02:30:48;;;;;;;4.40;3.43;;;;;;;2.63;84.04;95439.64;1755798;80;21011;-66
2022/11/25 02:33:15;;;;;;;7.20;4.30;;;;;;;2.54;83.51;95442.58;1787190;80;21047;-66
2022/11/25 02:35:47;;;;;;;4.67;3.47;;;;;;;2.54;84.33;95446.92;1786910;80;21007;-66
2022/11/25 02:38:24;;;;;;;4.87;3.40;;;;;;;2.53;84.51;95448.66;1786887;80;21070;-66
2022/11/25 02:41:13;;;;;;;5.83;3.80;;;;;;;2.52;84.42;95453.84;1785993;80;21023;-66
2022/11/25 02:43:41;;;;;;;5.03;2.90;;;;;;;2.51;84.82;95457.31;1773267;80;21020;-66
2022/11/25 02:46:12;;;;;;;4.87;3.53;;;;;;;2.45;84.73;95466.38;1787025;80;21049;-66
2022/11/25 02:48:41;;;;;;;4.10;3.13;;;;;;;2.40;84.43;95462.42;1785773;80;21094;-66
2022/11/25 02:51:12;;;;;;;5.00;3.37;;;;;;;2.37;84.53;95459.36;1787074;80;21070;-66
2022/11/25 02:53:39;;;;;;;6.03;3.60;;;;;;;2.42;84.62;95462.42;1787067;80;21026;-66
2022/11/25 02:56:08;;;;;;;5.07;3.30;;;;;;;2.41;84.42;95464.59;1754627;80;21500;-66
2022/11/25 02:58:34;;;;;;;4.80;3.13;;;;;;;2.40;84.30;95466.33;1787216;80;21499;-66
2022/11/25 03:01:01;;;;;;;4.43;3.03;;;;;;;2.36;84.29;95460.63;1787041;80;21018;-66
2022/11/25 03:03:28;;;;;;;4.40;3.10;;;;;;;2.34;84.21;95456.73;1787240;80;20975;-66
2022/11/25 03:05:55;;;;;;;4.40;3.13;;;;;;;2.37;84.12;95470.20;1786939;80;21429;-66
2022/11/25 03:08:24;;;;;;;3.40;2.17;;;;;;;2.36;84.73;95475.81;1787031;80;21015;-66
2022/11/25 03:10:52;;;;;;;4.07;2.63;;;;;;;2.36;84.47;95473.65;1787111;80;21046;-66
2022/11/25 03:13:19;;;;;;;5.87;3.10;;;;;;;2.32;84.36;95468.85;1786750;80;21019;-66
2022/11/25 03:15:47;;;;;;;3.80;2.97;;;;;;;2.31;84.11;95472.29;1787118;80;21552;-66
2022/11/25 03:18:13;;;;;;;5.57;3.93;;;;;;;2.39;84.66;95478.88;1787173;80;21484;-66
2022/11/25 03:20:41;;;;;;;5.73;4.00;;;;;;;2.42;84.60;95472.84;1787369;80;21011;-66
2022/11/25 03:23:08;;;;;;;6.30;3.97;;;;;;;2.49;84.80;95476.82;1787085;80;21003;-66
2022/11/25 03:25:35;;;;;;;7.00;3.60;;;;;;;2.53;84.98;95475.14;1787212;80;20995;-66
2022/11/25 03:28:03;;;;;;;4.70;3.67;;;;;;;2.56;84.70;95477.34;1787063;80;21022;-66
2022/11/25 03:30:31;;;;;;;5.37;3.60;;;;;;;2.53;84.46;95481.22;1792301;80;21019;-66
2022/11/25 03:32:59;;;;;;;4.17;3.30;;;;;;;2.49;84.35;95485.94;1795566;80;21030;-66
2022/11/25 03:35:25;;;;;;;5.37;3.67;;;;;;;2.42;84.72;95489.76;1795484;80;21504;-66
2022/11/25 03:37:53;;;;;;;4.90;3.60;;;;;;;2.47;85.53;95494.19;1795104;80;21033;-66
2022/11/25 03:40:20;;;;;;;5.17;3.47;;;;;;;2.45;85.31;95501.11;1795453;80;21023;-66
2022/11/25 03:42:47;;;;;;;4.93;3.63;;;;;;;2.40;85.16;95499.31;1795255;80;21097;-66
2022/11/25 03:45:16;;;;;;;4.60;3.23;;;;;;;2.36;85.39;95501.86;1795586;80;20974;-66
2022/11/25 03:47:45;;;;;;;4.70;3.40;;;;;;;2.31;85.15;95500.93;1795595;80;21041;-66
2022/11/25 03:50:15;;;;;;;4.43;3.43;;;;;;;2.25;85.61;95506.52;1795211;80;21014;-66
2022/11/25 03:52:42;;;;;;;6.80;3.73;;;;;;;2.21;85.29;95504.72;1795458;80;21015;-66
2022/11/25 03:55:11;;;;;;;6.03;3.90;;;;;;;2.21;86.02;95501.67;1795472;80;20983;-66
2022/11/25 03:57:40;;;;;;;6.37;4.17;;;;;;;2.21;86.29;95508.62;1795612;80;21062;-65
2022/11/25 04:00:09;;;;;;;6.73;4.77;;;;;;;2.17;85.99;95506.42;1795464;80;21038;-66
2022/11/25 04:02:46;;;;;;;4.83;3.40;;;;;;;2.18;85.85;95511.19;1794990;80;20991;-66
2022/11/25 04:05:14;;;;;;;6.87;3.93;;;;;;;2.22;86.18;95513.86;1795245;80;21556;-66
2022/11/25 04:07:41;;;;;;;6.43;4.03;;;;;;;2.21;85.61;95519.03;1795261;80;21003;-66
2022/11/25 04:10:09;;;;;;;4.70;3.80;;;;;;;2.16;85.30;95516.37;1795301;80;21500;-66
2022/11/25 04:12:46;;;;;;;5.63;4.30;;;;;;;2.20;85.93;95518.59;1795665;80;21026;-66
2022/11/25 04:15:16;;;;;;;10.00;6.33;;;;;;;2.14;85.38;95523.27;1795833;80;21039;-64
2022/11/25 04:17:43;;;;;;;11.93;7.10;;;;;;;2.10;85.36;95518.91;1795339;80;21054;-63
2022/11/25 04:20:12;;;;;;;27.47;13.07;;;;;;;2.07;85.33;95516.27;1795473;80;21540;-63
2022/11/25 04:22:39;;;;;;;13.97;8.17;;;;;;;2.08;85.42;95517.58;1764234;80;20995;-63
2022/11/25 04:25:08;;;;;;;5.27;3.83;;;;;;;2.16;86.22;95517.23;1795337;80;20975;-63
2022/11/25 04:27:35;;;;;;;4.67;3.23;;;;;;;2.19;85.64;95524.64;1795546;80;21513;-63
2022/11/25 04:30:03;;;;;;;4.60;3.10;;;;;;;2.27;86.26;95526.50;1792348;80;21134;-64
2022/11/25 04:32:29;;;;;;;6.33;3.10;;;;;;;2.33;85.58;95523.09;1787246;80;21496;-61
2022/11/25 04:34:58;;;;;;;4.80;3.00;;;;;;;2.30;85.40;95529.57;1787147;80;21073;-62
2022/11/25 04:37:25;;;;;;;4.83;3.30;;;;;;;2.30;85.48;95526.53;1786862;80;21441;-61
2022/11/25 04:39:52;;;;;;;5.20;3.97;;;;;;;2.39;85.93;95533.56;1753974;80;20999;-61
2022/11/25 04:42:31;;;;;;;8.27;4.00;;;;;;;2.43;85.84;95528.85;1787167;80;20974;-61
2022/11/25 04:45:00;;;;;;;5.10;3.77;;;;;;;2.44;85.29;95531.89;1786720;80;21086;-64
2022/11/25 04:47:29;;;;;;;5.23;3.53;;;;;;;2.43;84.97;95533.19;1787114;80;20990;-64
2022/11/25 04:49:55;;;;;;;3.90;3.27;;;;;;;2.38;84.68;95543.55;1787081;80;21003;-64
2022/11/25 04:52:22;;;;;;;5.43;3.43;;;;;;;2.36;85.36;95543.95;1786762;80;21018;-64
2022/11/25 04:54:49;;;;;;;4.73;3.40;;;;;;;2.35;85.25;95553.50;1787153;80;21504;-64
2022/11/25 04:57:17;;;;;;;5.13;3.47;;;;;;;2.36;85.33;95553.06;1787191;80;20987;-64
2022/11/25 04:59:45;;;;;;;5.67;3.63;;;;;;;2.36;85.02;95559.14;1754149;80;21528;-64
2022/11/25 05:02:16;;;;;;;6.27;4.23;;;;;;;2.24;84.50;95562.88;1787080;80;20982;-64
2022/11/25 05:04:48;;;;;;;7.30;4.97;;;;;;;2.11;85.20;95564.89;1785102;80;21022;-64
2022/11/25 05:07:17;;;;;;;7.50;5.50;;;;;;;2.03;85.57;95570.42;1786973;80;21026;-64
2022/11/25 05:09:44;;;;;;;10.40;6.10;;;;;;;1.94;85.43;95576.36;1754313;80;20995;-64
2022/11/25 05:12:19;;;;;;;10.00;6.57;;;;;;;1.91;85.66;95581.09;1785039;80;21022;-65
2022/11/25 05:14:48;;;;;;;9.83;6.43;;;;;;;1.92;85.53;95584.16;1787081;80;21018;-64
2022/11/25 05:17:22;;;;;;;7.50;5.20;;;;;;;1.93;85.69;95579.83;1787274;80;21478;-65
2022/11/25 05:19:50;;;;;;;9.27;5.83;;;;;;;1.90;85.63;95582.39;1786980;80;21041;-65
2022/11/25 05:22:22;;;;;;;7.60;4.83;;;;;;;1.95;86.03;95589.84;1787023;80;21535;-64
2022/11/25 05:24:50;;;;;;;7.75;4.70;;;;;;;1.95;85.71;95588.53;1787288;80;21079;-64
2022/11/25 05:27:18;;;;;;;6.43;4.63;;;;;;;1.92;85.57;95590.66;1786807;80;21034;-64
2022/11/25 05:29:45;;;;;;;5.83;4.17;;;;;;;1.96;85.63;95596.77;1787498;80;21081;-64
2022/11/25 05:32:13;;;;;;;6.53;4.50;;;;;;;1.99;85.84;95596.84;1795575;80;21018;-65
2022/11/25 05:34:40;;;;;;;6.23;4.40;;;;;;;2.04;86.12;95596.48;1794886;80;21504;-64
2022/11/25 05:37:09;;;;;;;5.87;4.27;;;;;;;2.09;85.94;95603.93;1795351;80;20963;-64
2022/11/25 05:39:36;;;;;;;7.40;4.77;;;;;;;2.11;85.67;95609.13;1795127;80;20987;-64
2022/11/25 05:42:20;;;;;;;6.57;4.50;;;;;;;2.08;85.57;95606.06;1792982;80;20989;-64
2022/11/25 05:44:48;;;;;;;6.03;4.37;;;;;;;2.07;85.53;95617.34;1795123;80;21031;-64
2022/11/25 05:47:14;;;;;;;8.17;5.07;;;;;;;2.05;85.67;95626.84;1794907;80;21022;-65
2022/11/25 05:49:41;;;;;;;7.23;5.30;;;;;;;2.04;85.70;95624.20;1795114;80;21133;-64
2022/11/25 05:52:08;;;;;;;7.23;5.20;;;;;;;2.13;86.29;95617.41;1795331;80;21053;-64
2022/11/25 05:54:36;;;;;;;7.63;5.43;;;;;;;2.14;86.24;95625.69;1794011;80;21023;-65
2022/11/25 05:57:03;;;;;;;11.50;7.60;;;;;;;2.24;86.15;95629.27;1794322;80;21042;-66
2022/11/25 05:59:35;;;;;;;9.33;7.20;;;;;;;2.31;86.06;95636.31;1765558;80;21068;-65
2022/11/25 06:02:06;;;;;;;11.90;9.10;;;;;;;2.40;86.30;95636.89;1793572;80;21010;-64
2022/11/25 06:04:33;;;;;;;18.77;9.53;;;;;;;2.40;85.81;95636.89;1794507;80;21148;-63
2022/11/25 06:07:00;;;;;;;13.73;9.10;;;;;;;2.41;85.73;95640.36;1795018;80;22241;-64
2022/11/25 06:09:26;;;;;;;23.00;10.57;;;;;;;2.37;85.24;95642.06;1794264;80;21077;-68
2022/11/25 06:11:53;;;;;;;20.50;9.70;;;;;;;2.30;85.00;95644.13;1794741;80;21481;-66
2022/11/25 06:14:20;;;;;;;19.17;10.57;;;;;;;2.21;84.90;95657.00;1795207;80;21520;-65
2022/11/25 06:16:48;;;;;;;17.67;10.10;;;;;;;2.09;85.01;95662.89;1795351;80;20982;-70
2022/11/25 06:19:16;;;;;;;19.30;10.50;;;;;;;2.00;85.24;95670.58;1791872;80;21046;-70
2022/11/25 06:21:43;;;;;;;19.27;10.20;;;;;;;1.95;85.49;95664.86;1794874;80;21069;-69
2022/11/25 06:24:09;;;;;;;21.37;9.77;;;;;;;1.97;85.54;95680.95;1796464;80;20951;-72
2022/11/25 06:26:36;;;;;;;17.60;10.73;;;;;;;1.97;85.67;95675.31;1797546;80;21053;-69
2022/11/25 06:29:03;;;;;;;15.37;9.40;;;;;;;1.97;85.75;95680.52;1797632;80;21049;-73
2022/11/25 06:31:30;;;;;;;15.83;10.17;;;;;;;1.96;86.02;95680.05;1797577;80;21069;-69
2022/11/25 06:34:01;;;;;;;19.67;10.20;;;;;;;1.94;85.97;95681.73;1795147;80;21029;-68
2022/11/25 06:36:28;;;;;;;15.90;9.27;;;;;;;1.99;86.24;95686.63;1796953;80;21562;-67
2022/11/25 06:38:54;;;;;;;14.47;9.33;;;;;;;2.02;86.22;95689.70;1797788;80;21057;-72
2022/11/25 06:41:22;;;;;;;16.47;9.47;;;;;;;2.14;86.52;95692.47;1797894;80;21018;-71
2022/11/25 06:43:49;;;;;;;21.57;12.40;;;;;;;2.23;86.14;95690.02;1797026;80;21523;-70
2022/11/25 06:46:18;;;;;;;16.50;10.53;;;;;;;2.35;86.41;95691.50;1797605;80;21034;-68
2022/11/25 06:48:44;;;;;;;14.50;9.43;;;;;;;2.45;85.59;95690.34;1797498;80;21087;-70
2022/11/25 06:51:13;;;;;;;26.07;12.13;;;;;;;2.44;85.06;95695.08;1797129;80;21051;-69
2022/11/25 06:53:41;;;;;;;15.03;10.20;;;;;;;2.41;84.70;95702.86;1797313;80;21037;-69
2022/11/25 06:56:15;;;;;;;18.00;10.57;;;;;;;2.42;84.72;95691.17;1797904;80;21409;-66
2022/11/25 06:58:44;;;;;;;15.70;8.57;;;;;;;2.34;84.12;95698.88;1796831;80;21601;-72
2022/11/25 07:01:21;;;;;;;15.33;8.30;;;;;;;2.33;84.59;95699.70;1798485;80;20994;-70
2022/11/25 07:03:51;;;;;;;13.80;8.87;;;;;;;2.37;84.52;95700.65;1797995;80;21131;-68
2022/11/25 07:06:19;;;;;;;16.53;10.20;;;;;;;2.42;84.79;95708.10;1798036;80;21026;-68
2022/11/25 07:08:47;;;;;;;19.67;11.60;;;;;;;2.40;83.67;95713.70;1797443;80;21112;-70
2022/11/25 07:11:21;;;;;;;23.93;12.80;;;;;;;2.37;83.92;95711.94;1797016;80;21069;-78
2022/11/25 07:14:04;;;;;;;22.37;14.23;;;;;;;2.35;83.76;95714.06;1797044;80;21587;-78
2022/11/25 07:16:31;;;;;;;19.57;12.35;;;;;;;2.32;83.85;95717.50;1797763;80;21010;-72
2022/11/25 07:19:03;;;;;;;18.77;13.10;;;;;;;2.30;83.80;95724.41;1797536;80;21132;-67
2022/11/25 07:21:32;;;;;;;18.07;12.73;;;;;;;2.31;83.79;95721.37;1796966;80;21084;-68
2022/11/25 07:24:02;;;;;;;22.10;14.00;;;;;;;2.31;83.74;95723.54;1798268;80;21006;-71
2022/11/25 07:26:33;;;;;;;20.57;13.57;;;;;;;2.29;83.66;95721.36;1761212;81;21544;-70
2022/11/25 07:29:04;;;;;;;22.53;13.33;;;;;;;2.32;84.25;95725.74;1728044;83;21020;-71
2022/11/25 07:31:35;;;;;;;22.40;11.60;;;;;;;2.40;84.01;95727.16;1737918;82;21106;-70
2022/11/25 07:34:16;;;;;;;19.20;13.00;;;;;;;2.43;83.93;95733.70;1733056;83;21367;-71
2022/11/25 07:36:44;;;;;;;20.87;12.50;;;;;;;2.45;84.03;95735.48;1734448;83;21603;-69
2022/11/25 07:39:16;;;;;;;20.40;12.33;;;;;;;2.49;83.88;95734.66;1734110;83;21030;-68
2022/11/25 07:41:43;;;;;;;20.90;13.03;;;;;;;2.53;82.98;95735.16;1733520;83;21149;-72
2022/11/25 07:44:13;;;;;;;22.47;13.70;;;;;;;2.57;83.14;95737.37;1733685;83;21061;-72
2022/11/25 07:46:51;;;;;;;22.37;13.80;;;;;;;2.66;83.55;95743.16;1733082;83;21591;-69
2022/11/25 07:49:21;;;;;;;19.50;13.93;;;;;;;2.66;82.71;95754.45;1732889;83;21171;-69
2022/11/25 07:51:52;;;;;;;21.40;13.83;;;;;;;2.63;82.19;95752.23;1733128;82;21043;-72
2022/11/25 07:54:20;;;;;;;23.57;14.30;;;;;;;2.57;81.82;95755.20;1734378;83;21130;-71
2022/11/25 07:56:47;;;;;;;26.90;14.53;;;;;;;2.52;81.58;95762.08;1733851;82;21480;-66
2022/11/25 07:59:18;;;;;;;22.97;14.63;;;;;;;2.45;81.17;95764.56;1733733;83;21053;-70
2022/11/25 08:01:45;;;;;;;21.30;13.87;;;;;;;2.36;80.60;95762.23;1733966;83;21015;-68
2022/11/25 08:04:14;;;;;;;19.00;12.80;;;;;;;2.36;81.14;95762.23;1759589;81;21030;-74
2022/11/25 08:06:43;;;;;;;19.00;11.33;;;;;;;2.35;81.09;95764.41;1779575;80;20991;-73
2022/11/25 08:09:18;;;;;;;24.73;15.90;;;;;;;2.36;80.97;95773.95;1780538;80;21074;-69
2022/11/25 08:11:45;;;;;;;19.73;13.20;;;;;;;2.40;81.07;95775.33;1780386;80;21053;-71
2022/11/25 08:14:14;;;;;;;19.63;13.23;;;;;;;2.40;81.00;95778.81;1779047;80;21141;-72
2022/11/25 08:16:41;;;;;;;19.13;12.70;;;;;;;2.41;80.83;95772.73;1750653;80;21497;-68
2022/11/25 08:19:12;;;;;;;13.47;9.17;;;;;;;2.45;81.08;95773.67;1781011;80;20963;-72
2022/11/25 08:21:39;;;;;;;14.20;9.07;;;;;;;2.53;80.80;95769.45;1780241;80;21492;-70
2022/11/25 08:24:06;;;;;;;16.40;9.60;;;;;;;2.59;80.34;95776.05;1779507;80;21097;-72
2022/11/25 08:26:36;;;;;;;16.33;10.67;;;;;;;2.68;80.81;95783.14;1780031;80;21030;-70
2022/11/25 08:29:06;;;;;;;15.80;10.10;;;;;;;2.73;80.37;95779.73;1781272;80;20989;-75
2022/11/25 08:31:37;;;;;;;15.17;10.73;;;;;;;2.78;80.57;95787.20;1780136;80;21587;-76
2022/11/25 08:34:06;;;;;;;16.37;10.43;;;;;;;2.89;80.72;95787.77;1780475;80;21014;-76
2022/11/25 08:36:34;;;;;;;15.43;11.03;;;;;;;3.11;81.24;95787.64;1749592;80;21607;-76
2022/11/25 08:39:05;;;;;;;14.33;9.93;;;;;;;3.28;79.76;95777.01;1780793;80;21096;-74
2022/11/25 08:41:36;;;;;;;17.37;10.23;;;;;;;3.43;78.94;95785.45;1780080;80;21360;-70
2022/11/25 08:44:06;;;;;;;14.40;9.57;;;;;;;3.56;79.44;95790.38;1780051;80;21243;-68
2022/11/25 08:46:36;;;;;;;17.77;11.17;;;;;;;3.77;79.44;95780.60;1780599;80;21718;-74
2022/11/25 08:49:07;;;;;;;14.30;9.40;;;;;;;3.99;79.02;95785.19;1780211;80;21082;-70
2022/11/25 08:51:36;;;;;;;12.00;8.00;;;;;;;4.16;78.54;95786.66;1780884;80;21019;-70
2022/11/25 08:54:05;;;;;;;11.93;8.80;;;;;;;4.22;76.90;95780.61;1779967;80;21054;-67
2022/11/25 08:56:32;;;;;;;16.13;10.03;;;;;;;4.28;77.80;95784.56;1780151;80;21050;-77
2022/11/25 08:58:59;;;;;;;14.20;9.67;;;;;;;4.30;77.48;95788.08;1781118;80;21030;-71
2022/11/25 09:01:26;;;;;;;13.00;7.97;;;;;;;4.30;76.89;95790.25;1779856;80;21047;-72
2022/11/25 09:03:55;;;;;;;15.07;10.37;;;;;;;4.25;76.15;95798.91;1780145;80;21063;-76
2022/11/25 09:06:25;;;;;;;19.50;10.03;;;;;;;4.16;75.81;95802.73;1763869;80;21039;-73
2022/11/25 09:08:56;;;;;;;17.53;11.40;;;;;;;4.08;75.99;95796.13;1769956;81;21044;-80
2022/11/25 09:11:24;;;;;;;11.47;7.87;;;;;;;4.01;76.47;95797.83;1769159;81;21039;-74
2022/11/25 09:13:51;;;;;;;16.13;10.60;;;;;;;3.96;76.17;95796.04;1769464;81;21027;-71
2022/11/25 09:16:18;;;;;;;12.33;8.43;;;;;;;3.89;75.86;95804.23;1769807;81;21052;-80
2022/11/25 09:18:45;;;;;;;9.93;6.40;;;;;;;3.58;74.23;95800.38;1766088;81;21501;-70
2022/11/25 09:21:16;;;;;;;8.67;5.20;;;;;;;3.48;74.51;95809.86;1769204;81;21120;-79
2022/11/25 09:23:43;;;;;;;8.07;5.00;;;;;;;3.41;74.73;95811.50;1769138;81;21567;-73
2022/11/25 09:26:26;;;;;;;8.20;5.17;;;;;;;3.42;74.85;95809.33;1769591;81;21025;-72
2022/11/25 09:28:54;;;;;;;;;;;;;;;3.45;74.68;95805.88;1772201;81;21094;-73
2022/11/25 09:31:22;;;;;;;7.37;4.73;;;;;;;3.46;75.11;95810.27;1769739;81;20137;-75
2022/11/25 09:33:49;;;;;;;6.90;4.47;;;;;;;3.56;75.49;95812.56;1769186;81;21046;-75
2022/11/25 09:36:18;;;;;;;6.10;3.90;;;;;;;3.66;75.34;95809.20;1770237;81;21524;-75
2022/11/25 09:38:45;;;;;;;7.50;4.80;;;;;;;3.75;73.57;95805.36;1770099;81;21038;-75
2022/11/25 09:48:06;;;;;;;5.97;3.73;;;;;;;4.11;70.64;95814.47;1776829;79;20975;-73
2022/11/25 09:51:07;;;;;;;5.13;3.37;;;;;;;3.99;70.69;95813.03;1741839;82;21464;-82
2022/11/25 09:53:48;;;;;;;5.63;3.77;;;;;;;3.88;69.84;95818.12;1741133;82;21100;-74
2022/11/25 09:56:38;;;;;;;4.17;3.07;;;;;;;3.82;71.42;95824.59;1808947;79;20999;-71
2022/11/25 09:59:40;;;;;;;5.33;3.47;;;;;;;3.68;70.15;95826.63;1752750;82;21106;-73
2022/11/25 10:02:15;;;;;;;6.23;4.03;;;;;;;3.58;71.53;95829.98;1774662;81;21053;-73
2022/11/25 10:04:47;;;;;;;7.37;5.10;;;;;;;3.46;71.05;95829.39;1776112;81;21511;-71
2022/11/25 10:07:19;;;;;;;7.97;5.00;;;;;;;3.36;71.60;95832.73;1751591;81;21063;-69
2022/11/25 10:09:45;;;;;;;7.67;5.03;;;;;;;3.32;72.50;95832.67;1752624;81;21070;-73
2022/11/25 10:12:36;;;;;;;9.50;5.93;;;;;;;3.30;72.71;95833.98;1774906;81;21052;-71
2022/11/25 10:15:07;;;;;;;6.60;4.40;;;;;;;3.29;72.84;95830.91;1774975;81;21085;-75
2022/11/25 10:17:43;;;;;;;10.43;6.20;;;;;;;3.22;72.26;95834.28;1745089;81;21590;-71
2022/11/25 10:20:26;;;;;;;11.23;7.60;;;;;;;3.16;73.10;95838.13;1775619;81;21037;-70
2022/11/25 10:23:04;;;;;;;12.77;8.47;;;;;;;3.11;73.94;95833.27;1749990;82;21027;-71
2022/11/25 10:25:36;;;;;;;11.30;7.57;;;;;;;3.10;74.05;95840.22;1725774;82;20986;-71
2022/11/25 10:28:26;;;;;;;10.23;7.30;;;;;;;3.04;74.23;95832.30;1774854;81;21583;-72
2022/11/25 10:31:06;;;;;;;8.17;5.60;;;;;;;2.95;74.49;95834.36;1775277;81;21105;-71
2022/11/25 10:33:38;;;;;;;7.53;4.90;;;;;;;2.90;74.44;95836.42;1752441;82;21014;-71
2022/11/25 10:36:27;;;;;;;7.10;4.27;;;;;;;2.97;74.67;95839.58;1752568;82;21026;-71
2022/11/25 10:39:04;;;;;;;7.07;3.97;;;;;;;3.46;74.30;95833.73;1775462;81;21526;-71
2022/11/25 10:41:36;;;;;;;7.93;4.30;;;;;;;3.89;73.54;95822.06;1745522;81;20978;-70
2022/11/25 10:44:04;;;;;;;7.87;4.87;;;;;;;4.18;72.26;95825.39;1775851;81;21093;-72
2022/11/25 10:46:45;;;;;;;12.63;6.30;;;;;;;4.19;71.35;95828.47;1776149;81;20998;-72
2022/11/25 10:49:20;;;;;;;8.13;5.20;;;;;;;4.08;70.40;95836.61;1775761;81;21128;-71
2022/11/25 10:51:49;;;;;;;5.10;3.93;;;;;;;3.88;69.74;95834.68;1775043;81;21006;-72
2022/11/25 10:54:22;;;;;;;7.13;4.17;;;;;;;3.74;70.70;95842.77;1775388;81;21621;-71
2022/11/25 10:57:01;;;;;;;4.37;3.27;;;;;;;3.63;70.99;95847.87;1775462;81;21518;-71
2022/11/25 10:59:38;;;;;;;4.60;3.03;;;;;;;3.59;71.14;95856.94;1775656;81;21376;-71
2022/11/25 11:02:26;;;;;;;4.23;3.10;;;;;;;3.52;70.57;95851.19;1775975;81;21500;-71
2022/11/25 11:05:04;;;;;;;5.47;3.73;;;;;;;3.39;70.54;95852.77;1775925;81;20979;-71
2022/11/25 11:07:38;;;;;;;5.07;3.03;;;;;;;3.36;70.87;95855.34;1776046;81;20986;-71
2022/11/25 11:10:19;;;;;;;6.03;3.27;;;;;;;3.44;71.06;95857.63;1775982;81;21066;-71
2022/11/25 11:12:57;;;;;;;4.53;3.30;;;;;;;3.51;69.70;95854.67;1753178;82;21031;-71
2022/11/25 11:15:30;;;;;;;4.57;3.40;;;;;;;3.89;70.92;95852.08;1753267;82;21492;-70
2022/11/25 11:17:59;;;;;;;;;;;;;;;4.98;70.19;95849.59;1778632;81;21057;-73
2022/11/25 11:20:31;;;;;;;4.23;3.17;;;;;;;5.80;67.49;95838.71;1776114;81;20097;-74
2022/11/25 11:23:08;;;;;;;3.10;2.30;;;;;;;6.57;62.54;95834.97;1753167;82;21027;-74
2022/11/25 11:25:37;;;;;;;2.87;2.27;;;;;;;6.25;60.00;95827.96;1753050;81;20991;-74
2022/11/25 11:28:37;;;;;;;3.55;2.40;;;;;;;6.32;62.41;95834.06;1776099;81;21021;-71
2022/11/25 11:31:16;;;;;;;3.52;3.05;;;;;;;6.58;61.95;95831.50;1776213;81;21014;-71
2022/11/25 11:34:08;;;;;;;2.87;2.12;;;;;;;6.56;61.62;95841.55;1780167;81;21034;-71
2022/11/25 11:36:55;;;;;;;4.15;2.95;;;;;;;6.39;59.72;95830.59;1749055;82;20985;-71
2022/11/25 11:39:59;;;;;;;5.62;2.85;;;;;;;6.81;61.59;95824.94;1809908;79;21098;-71
2022/11/25 11:42:43;;;;;;;30.10;14.53;;;;;;;6.94;58.85;95827.98;1766094;79;21017;-71
2022/11/25 11:45:50;;;;;;;8.33;6.15;;;;;;;6.91;59.58;95834.55;1809982;79;21014;-72
2022/11/25 11:48:37;;;;;;;5.03;3.70;;;;;;;7.37;59.50;95833.16;1809817;79;21542;-73
2022/11/25 11:51:25;;;;;;;3.85;3.22;;;;;;;8.41;56.70;95836.25;1810022;79;21025;-73
2022/11/25 11:54:22;;;;;;;3.30;2.90;;;;;;;9.24;54.40;95827.70;1809636;79;21217;-74
2022/11/25 11:56:57;;;;;;;3.12;2.45;;;;;;;9.96;52.85;95826.92;1809603;79;21009;-74
2022/11/25 11:59:42;;;;;;;3.35;2.87;;;;;;;10.27;48.96;95828.70;1808517;79;21019;-71
2022/11/25 12:02:54;;;;;;;4.08;3.60;;;;;;;10.39;50.10;95827.70;1810021;79;21006;-71
2022/11/25 12:05:28;;;;;;;4.47;3.27;;;;;;;10.55;47.91;95830.98;1809762;79;21479;-71
2022/11/25 12:08:18;;;;;;;2.40;2.20;;;;;;;10.55;47.91;95830.98;1809828;79;21017;-70
2022/11/25 12:11:07;;;;;;;9.35;8.55;;;;;;;10.01;49.60;95831.69;1809712;79;21053;-72